createdAt,value
2022-08-11T00:01:59.273Z,3.30
2022-08-11T00:04:27.796Z,3.33
2022-08-11T00:06:57.194Z,3.50
2022-08-11T00:09:39.682Z,3.23
2022-08-11T00:12:13.925Z,3.03
2022-08-11T00:14:42.062Z,3.17
2022-08-11T00:17:13.678Z,3.27
2022-08-11T00:20:12.863Z,3.50
2022-08-11T00:22:31.251Z,2.83
2022-08-11T00:25:02.586Z,3.40
2022-08-11T00:27:35.383Z,3.30
2022-08-11T00:30:04.450Z,3.67
2022-08-11T00:32:32.701Z,3.53
2022-08-11T00:35:54.047Z,2.83
2022-08-11T00:37:50.860Z,3.53
2022-08-11T00:40:25.003Z,3.10
2022-08-11T00:42:59.934Z,3.63
2022-08-11T00:45:29.077Z,3.50
2022-08-11T00:48:01.988Z,3.20
2022-08-11T00:50:36.732Z,3.93
2022-08-11T00:53:15.802Z,3.30
2022-08-11T00:56:22.947Z,3.37
2022-08-11T00:59:37.952Z,3.40
2022-08-11T01:02:20.399Z,3.33
2022-08-11T01:05:21.874Z,3.77
2022-08-11T01:08:27.713Z,3.67
2022-08-11T01:11:29.551Z,3.37
2022-08-11T01:14:16.699Z,3.83
2022-08-11T01:17:11.999Z,4.10
2022-08-11T01:20:47.609Z,4.13
2022-08-11T01:23:46.760Z,3.63
2022-08-11T01:26:55.866Z,3.40
2022-08-11T01:30:07.788Z,4.03
2022-08-11T01:33:12.246Z,3.77
2022-08-11T01:36:29.442Z,3.80
2022-08-11T01:39:31.811Z,4.33
2022-08-11T01:42:33.775Z,3.87
2022-08-11T01:45:09.489Z,3.43
2022-08-11T01:47:54.187Z,3.60
2022-08-11T01:50:37.312Z,4.00
2022-08-11T01:53:19.914Z,3.70
2022-08-11T01:55:58.022Z,3.73
2022-08-11T01:58:43.530Z,3.90
2022-08-11T02:01:24.483Z,3.77
2022-08-11T02:04:00.757Z,3.37
2022-08-11T02:06:53.758Z,3.60
2022-08-11T02:09:34.737Z,3.80
2022-08-11T02:12:14.285Z,3.73
2022-08-11T02:14:57.260Z,3.50
2022-08-11T02:17:52.653Z,3.33
2022-08-11T02:20:43.113Z,3.80
2022-08-11T02:24:04.260Z,3.43
2022-08-11T02:26:27.757Z,4.37
2022-08-11T02:29:05.398Z,4.13
2022-08-11T02:32:25.250Z,4.20
2022-08-11T02:35:11.521Z,4.57
2022-08-11T02:37:46.322Z,3.93
2022-08-11T02:40:23.648Z,4.03
2022-08-11T02:42:57.408Z,4.43
2022-08-11T02:45:39.320Z,4.70
2022-08-11T02:48:27.563Z,4.00
2022-08-11T02:51:07.291Z,4.50
2022-08-11T02:53:39.688Z,4.07
2022-08-11T02:56:10.048Z,4.67
2022-08-11T02:59:05.623Z,4.27
2022-08-11T03:01:45.114Z,4.33
2022-08-11T03:04:16.573Z,4.03
2022-08-11T03:06:49.555Z,4.73
2022-08-11T03:09:24.649Z,4.07
2022-08-11T03:12:14.515Z,4.40
2022-08-11T03:15:17.088Z,4.20
2022-08-11T03:17:53.039Z,4.77
2022-08-11T03:20:33.483Z,4.53
2022-08-11T03:23:19.278Z,4.57
2022-08-11T03:25:54.593Z,4.20
2022-08-11T03:28:38.552Z,4.30
2022-08-11T03:31:19.365Z,4.20
2022-08-11T03:34:07.037Z,4.80
2022-08-11T03:37:35.365Z,4.47
2022-08-11T03:40:09.025Z,3.97
2022-08-11T03:42:43.298Z,4.77
2022-08-11T03:45:21.057Z,4.50
2022-08-11T03:48:11.690Z,4.97
2022-08-11T03:51:13.107Z,4.23
2022-08-11T03:53:51.461Z,4.80
2022-08-11T03:56:51.266Z,4.63
2022-08-11T03:59:56.534Z,5.03
2022-08-11T04:02:33.206Z,4.57
2022-08-11T04:05:26.370Z,5.10
2022-08-11T04:08:21.568Z,4.83
2022-08-11T04:11:14.616Z,5.00
2022-08-11T04:14:32.857Z,4.30
2022-08-11T04:17:19.675Z,4.83
2022-08-11T04:20:08.928Z,5.07
2022-08-11T04:22:50.213Z,4.87
2022-08-11T04:25:32.001Z,4.63
2022-08-11T04:28:28.391Z,5.40
2022-08-11T04:31:50.397Z,4.87
2022-08-11T04:34:38.646Z,4.57
2022-08-11T04:37:30.728Z,5.03
2022-08-11T04:40:25.728Z,5.73
2022-08-11T04:43:33.867Z,5.37
2022-08-11T04:46:49.733Z,5.37
2022-08-11T04:49:51.104Z,5.40
2022-08-11T04:53:02.667Z,5.47
2022-08-11T04:56:11.063Z,5.53
2022-08-11T04:59:21.771Z,5.20
2022-08-11T05:02:02.503Z,5.43
2022-08-11T05:05:05.964Z,5.33
2022-08-11T05:08:09.113Z,5.37
2022-08-11T05:10:48.800Z,5.50
2022-08-11T05:13:43.878Z,5.50
2022-08-11T05:16:34.506Z,5.33
2022-08-11T05:19:20.097Z,5.80
2022-08-11T05:22:10.906Z,5.47
2022-08-11T05:25:02.352Z,5.70
2022-08-11T05:27:52.257Z,5.63
2022-08-11T05:30:38.309Z,5.97
2022-08-11T05:33:28.308Z,5.47
2022-08-11T05:36:03.312Z,5.37
2022-08-11T05:38:49.890Z,4.97
2022-08-11T05:41:38.704Z,5.20
2022-08-11T05:44:24.883Z,4.70
2022-08-11T05:47:17.028Z,5.77
2022-08-11T05:50:08.367Z,4.87
2022-08-11T05:52:55.580Z,5.33
2022-08-11T05:56:01.723Z,5.00
2022-08-11T05:58:38.227Z,4.67
2022-08-11T06:01:09.624Z,5.13
2022-08-11T06:03:58.877Z,4.97
2022-08-11T06:06:32.891Z,4.80
2022-08-11T06:09:01.367Z,5.10
2022-08-11T06:11:43.035Z,5.10
2022-08-11T06:14:13.578Z,4.73
2022-08-11T06:16:45.390Z,4.20
2022-08-11T06:19:14.433Z,5.17
2022-08-11T06:21:46.947Z,4.53
2022-08-11T06:24:20.442Z,4.20
2022-08-11T06:27:11.747Z,4.23
2022-08-11T06:29:48.174Z,4.37
2022-08-11T06:32:22.921Z,4.10
2022-08-11T06:35:10.115Z,5.20
2022-08-11T06:37:48.664Z,4.47
2022-08-11T06:40:23.802Z,4.27
2022-08-11T06:42:56.404Z,4.77
2022-08-11T06:45:35.126Z,4.60
2022-08-11T06:48:06.548Z,4.10
2022-08-11T06:50:57.235Z,3.83
2022-08-11T06:53:27.090Z,4.40
2022-08-11T06:56:20.345Z,4.67
2022-08-11T06:59:06.632Z,3.83
2022-08-11T07:01:49.619Z,3.93
2022-08-11T07:04:25.958Z,4.33
2022-08-11T07:07:19.326Z,3.60
2022-08-11T07:10:30.855Z,4.07
2022-08-11T07:13:44.124Z,3.47
2022-08-11T07:16:12.673Z,3.80
2022-08-11T07:18:59.735Z,3.17
2022-08-11T07:22:02.845Z,3.50
2022-08-11T07:24:59.719Z,3.60
2022-08-11T07:27:53.203Z,3.50
2022-08-11T07:30:22.821Z,3.00
2022-08-11T07:32:52.165Z,3.27
2022-08-11T07:35:23.357Z,2.97
2022-08-11T07:38:01.730Z,2.80
2022-08-11T07:40:32.253Z,2.83
2022-08-11T07:43:02.462Z,3.20
2022-08-11T07:45:48.250Z,3.10
2022-08-11T07:48:35.454Z,3.07
2022-08-11T07:51:21.356Z,2.70
2022-08-11T07:54:03.201Z,2.90
2022-08-11T07:56:48.735Z,3.00
2022-08-11T08:00:00.131Z,2.50
2022-08-11T08:02:47.301Z,2.73
2022-08-11T08:05:33.409Z,2.90
2022-08-11T08:08:18.966Z,2.33
2022-08-11T08:11:04.306Z,2.40
2022-08-11T08:13:51.219Z,3.17
2022-08-11T08:16:38.024Z,2.63
2022-08-11T08:19:09.509Z,2.30
2022-08-11T08:21:37.678Z,2.67
2022-08-11T08:24:07.762Z,2.73
2022-08-11T08:26:53.407Z,2.15
2022-08-11T08:29:39.002Z,2.20
2022-08-11T08:32:11.051Z,2.00
2022-08-11T08:34:40.210Z,2.00
2022-08-11T08:37:15.886Z,2.08
2022-08-11T08:40:06.042Z,2.00
2022-08-11T08:42:44.467Z,2.10
2022-08-11T08:45:15.987Z,2.17
2022-08-11T08:47:52.567Z,1.80
2022-08-11T08:50:27.683Z,1.90
2022-08-11T08:53:01.296Z,2.38
2022-08-11T08:55:29.794Z,1.85
2022-08-11T08:58:00.819Z,2.00
2022-08-11T09:00:30.328Z,1.73
2022-08-11T09:03:22.809Z,1.83
2022-08-11T09:05:54.734Z,1.70
2022-08-11T09:08:25.381Z,1.80
2022-08-11T09:11:11.854Z,1.98
2022-08-11T09:14:04.955Z,1.83
2022-08-11T09:16:39.159Z,1.98
2022-08-11T09:19:13.987Z,1.90
2022-08-11T09:21:48.989Z,1.77
2022-08-11T09:24:42.683Z,1.67
2022-08-11T09:27:11.298Z,1.98
2022-08-11T09:29:45.578Z,1.63
2022-08-11T09:32:20.798Z,1.50
2022-08-11T09:34:58.065Z,1.50
2022-08-11T09:37:54.217Z,1.83
2022-08-11T09:40:36.569Z,2.15
2022-08-11T09:43:24.056Z,1.90
2022-08-11T09:45:58.345Z,1.80
2022-08-11T09:48:27.486Z,1.63
2022-08-11T09:51:00.223Z,1.80
2022-08-11T09:53:40.744Z,1.70
2022-08-11T09:56:30.723Z,1.63
2022-08-11T09:58:59.596Z,1.75
2022-08-11T10:01:36.677Z,2.00
2022-08-11T10:04:07.450Z,1.80
2022-08-11T10:06:57.434Z,1.85
2022-08-11T10:09:26.281Z,1.80
2022-08-11T10:11:58.265Z,1.85
2022-08-11T10:14:46.247Z,2.13
2022-08-11T10:17:14.659Z,2.17
2022-08-11T10:19:42.920Z,2.13
2022-08-11T10:22:38.709Z,2.05
2022-08-11T10:25:25.574Z,2.10
2022-08-11T10:28:17.112Z,2.10
2022-08-11T10:31:05.537Z,2.40
2022-08-11T10:33:59.800Z,1.80
2022-08-11T10:36:31.599Z,1.88
2022-08-11T10:39:01.819Z,1.80
2022-08-11T10:42:08.619Z,2.40
2022-08-11T10:44:38.857Z,2.10
2022-08-11T10:47:24.699Z,1.85
2022-08-11T10:50:13.632Z,1.90
2022-08-11T10:52:59.038Z,1.92
2022-08-11T10:55:48.836Z,1.65
2022-08-11T10:58:34.495Z,2.45
2022-08-11T11:01:02.743Z,2.13
2022-08-11T11:03:34.900Z,1.98
2022-08-11T11:06:27.664Z,1.77
2022-08-11T11:09:03.758Z,2.03
2022-08-11T11:11:57.287Z,2.20
2022-08-11T11:14:50.809Z,2.10
2022-08-11T11:17:44.230Z,1.90
2022-08-11T11:20:36.039Z,2.08
2022-08-11T11:23:05.010Z,1.77
2022-08-11T11:26:11.015Z,2.05
2022-08-11T11:29:16.421Z,1.90
2022-08-11T11:31:56.120Z,1.95
2022-08-11T11:34:34.634Z,1.88
2022-08-11T11:37:03.268Z,1.90
2022-08-11T11:39:32.934Z,1.40
2022-08-11T11:42:06.454Z,1.85
2022-08-11T11:44:42.573Z,1.75
2022-08-11T11:47:16.609Z,1.85
2022-08-11T11:49:45.153Z,1.95
2022-08-11T11:52:17.294Z,2.10
2022-08-11T11:54:50.835Z,2.20
2022-08-11T11:57:41.787Z,1.90
2022-08-11T12:00:45.970Z,1.90
2022-08-11T12:03:14.640Z,1.95
2022-08-11T12:05:43.625Z,1.75
2022-08-11T12:08:13.472Z,2.15
2022-08-11T12:10:47.908Z,1.77
2022-08-11T12:13:33.781Z,1.90
2022-08-11T12:16:32.946Z,1.98
2022-08-11T12:19:01.892Z,1.80
2022-08-11T12:21:30.437Z,1.90
2022-08-11T12:24:16.837Z,1.52
2022-08-11T12:27:16.344Z,2.10
2022-08-11T12:29:55.622Z,2.08
2022-08-11T12:32:27.137Z,1.80
2022-08-11T12:34:58.028Z,2.00
2022-08-11T12:37:30.397Z,2.22
2022-08-11T12:40:43.688Z,2.10
2022-08-11T12:43:37.158Z,2.17
2022-08-11T12:46:09.140Z,1.70
2022-08-11T12:49:02.014Z,1.98
2022-08-11T12:52:13.914Z,1.73
2022-08-11T12:54:59.031Z,1.98
2022-08-11T12:57:53.151Z,1.85
2022-08-11T13:00:38.991Z,2.13
2022-08-11T13:03:29.102Z,1.83
2022-08-11T13:05:59.894Z,2.10
2022-08-11T13:08:34.955Z,1.70
2022-08-11T13:11:20.427Z,2.15
2022-08-11T13:13:54.908Z,1.95
2022-08-11T13:16:31.939Z,1.70
2022-08-11T13:19:01.176Z,2.30
2022-08-11T13:21:37.762Z,2.00
2022-08-11T13:24:07.922Z,1.90
2022-08-11T13:26:46.796Z,1.95
2022-08-11T13:29:21.594Z,1.85
2022-08-11T13:31:49.782Z,1.80
2022-08-11T13:34:19.817Z,1.42
2022-08-11T13:36:50.486Z,1.77
2022-08-11T13:39:19.069Z,1.60
2022-08-11T13:41:47.974Z,1.55
2022-08-11T13:44:23.124Z,1.75
2022-08-11T13:46:59.327Z,2.10
2022-08-11T13:49:27.783Z,1.98
2022-08-11T13:51:57.602Z,1.45
2022-08-11T13:54:28.582Z,1.65
2022-08-11T13:57:13.765Z,1.73
2022-08-11T14:00:12.213Z,1.65
2022-08-11T14:02:58.407Z,1.70
2022-08-11T14:05:28.662Z,1.58
2022-08-11T14:08:00.565Z,1.70
2022-08-11T14:10:32.917Z,1.80
2022-08-11T14:13:25.433Z,1.80
2022-08-11T14:15:53.655Z,1.60
2022-08-11T14:18:23.764Z,1.80
2022-08-11T14:21:18.967Z,1.50
2022-08-11T14:24:04.692Z,1.50
2022-08-11T14:26:39.004Z,1.88
2022-08-11T14:29:15.859Z,1.48
2022-08-11T14:31:45.730Z,1.38
2022-08-11T14:34:21.198Z,1.63
2022-08-11T14:36:53.581Z,1.60
2022-08-11T14:39:31.913Z,1.40
2022-08-11T14:42:24.605Z,1.50
2022-08-11T14:45:16.636Z,1.50
2022-08-11T14:47:45.919Z,1.65
2022-08-11T14:50:24.895Z,1.30
2022-08-11T14:52:55.186Z,1.40
2022-08-11T14:55:43.701Z,1.60
2022-08-11T14:58:14.336Z,1.40
2022-08-11T15:00:42.705Z,1.50
2022-08-11T15:03:11.709Z,1.27
2022-08-11T15:05:54.325Z,1.30
2022-08-11T15:08:49.265Z,1.55
2022-08-11T15:11:44.848Z,1.45
2022-08-11T15:14:41.889Z,1.60
2022-08-11T15:17:09.015Z,1.48
2022-08-11T15:19:40.807Z,1.95
2022-08-11T15:22:28.396Z,1.55
2022-08-11T15:24:58.363Z,1.40
2022-08-11T15:27:45.378Z,1.63
2022-08-11T15:30:32.912Z,1.85
2022-08-11T15:33:22.811Z,1.60
2022-08-11T15:36:11.060Z,1.70
2022-08-11T15:38:43.258Z,1.55
2022-08-11T15:41:29.234Z,1.52
2022-08-11T15:44:16.281Z,1.10
2022-08-11T15:46:46.391Z,1.38
2022-08-11T15:49:22.123Z,1.48
2022-08-11T15:52:02.294Z,1.55
2022-08-11T15:54:31.680Z,1.40
2022-08-11T15:57:01.874Z,1.40
2022-08-11T15:59:55.539Z,1.35
2022-08-11T16:02:48.042Z,1.40
2022-08-11T16:05:44.928Z,1.35
2022-08-11T16:08:06.177Z,1.60
2022-08-11T16:10:42.062Z,1.73
2022-08-11T16:13:30.266Z,1.80
2022-08-11T16:16:18.574Z,1.90
2022-08-11T16:18:51.747Z,1.50
2022-08-11T16:21:33.632Z,1.33
2022-08-11T16:25:58.359Z,1.60
2022-08-11T16:27:10.131Z,1.23
2022-08-11T16:29:45.428Z,1.15
2022-08-11T16:32:20.720Z,1.67
2022-08-11T16:35:11.009Z,1.20
2022-08-11T16:37:56.854Z,2.10
2022-08-11T16:40:33.785Z,1.30
2022-08-11T16:43:20.101Z,1.58
2022-08-11T16:46:05.674Z,1.30
2022-08-11T16:48:40.709Z,1.50
2022-08-11T16:51:09.569Z,1.85
2022-08-11T16:53:59.726Z,1.70
2022-08-11T16:56:36.800Z,1.77
2022-08-11T16:59:15.895Z,1.20
2022-08-11T17:01:54.244Z,1.27
2022-08-11T17:04:47.816Z,1.40
2022-08-11T17:07:42.510Z,1.30
2022-08-11T17:10:53.657Z,1.50
2022-08-11T17:13:25.643Z,1.50
2022-08-11T17:16:10.096Z,1.27
2022-08-11T17:18:50.792Z,1.45
2022-08-11T17:21:26.391Z,1.77
2022-08-11T17:23:56.258Z,1.92
2022-08-11T17:26:52.144Z,1.65
2022-08-11T17:29:33.288Z,1.77
2022-08-11T17:32:19.617Z,1.70
2022-08-11T17:35:08.373Z,1.70
2022-08-11T17:37:38.655Z,1.50
2022-08-11T17:40:15.908Z,1.90
2022-08-11T17:43:03.493Z,1.83
2022-08-11T17:45:57.023Z,1.77
2022-08-11T17:48:30.432Z,1.88
2022-08-11T17:51:05.894Z,1.80
2022-08-11T17:54:18.111Z,1.60
2022-08-11T17:57:05.708Z,1.88
2022-08-11T17:59:58.135Z,1.70
2022-08-11T18:02:49.212Z,1.88
2022-08-11T18:05:27.304Z,1.70
2022-08-11T18:08:15.592Z,1.70
2022-08-11T18:11:04.124Z,1.98
2022-08-11T18:13:54.009Z,1.92
2022-08-11T18:16:39.551Z,1.70
2022-08-11T18:19:26.996Z,1.70
2022-08-11T18:22:16.518Z,1.77
2022-08-11T18:25:06.676Z,1.70
2022-08-11T18:27:53.760Z,2.03
2022-08-11T18:30:42.571Z,1.70
2022-08-11T18:34:03.470Z,1.95
2022-08-11T18:36:44.197Z,1.80
2022-08-11T18:39:30.369Z,1.95
2022-08-11T18:42:19.512Z,2.22
2022-08-11T18:45:18.066Z,1.98
2022-08-11T18:48:03.681Z,2.28
2022-08-11T18:50:51.354Z,2.20
2022-08-11T18:53:56.640Z,1.70
2022-08-11T18:56:43.000Z,2.05
2022-08-11T18:59:29.947Z,1.67
2022-08-11T19:02:24.756Z,2.10
2022-08-11T19:05:11.907Z,1.88
2022-08-11T19:07:59.746Z,2.20
2022-08-11T19:10:45.429Z,1.73
2022-08-11T19:13:34.792Z,1.90
2022-08-11T19:16:23.652Z,2.05
2022-08-11T19:19:13.849Z,2.50
2022-08-11T19:22:03.480Z,1.77
2022-08-11T19:24:51.588Z,1.92
2022-08-11T19:27:38.010Z,1.55
2022-08-11T19:30:24.557Z,2.20
2022-08-11T19:33:10.024Z,1.67
2022-08-11T19:35:56.992Z,1.50
2022-08-11T19:38:42.546Z,2.28
2022-08-11T19:41:57.702Z,1.77
2022-08-11T19:44:39.208Z,2.00
2022-08-11T19:47:25.912Z,2.00
2022-08-11T19:50:12.944Z,2.00
2022-08-11T19:53:00.394Z,2.20
2022-08-11T19:55:46.131Z,2.20
2022-08-11T19:58:32.647Z,2.30
2022-08-11T20:01:18.321Z,2.00
2022-08-11T20:04:03.741Z,1.90
2022-08-11T20:06:50.950Z,2.07
2022-08-11T20:10:04.931Z,2.60
2022-08-11T20:12:44.262Z,2.37
2022-08-11T20:15:29.971Z,1.80
2022-08-11T20:18:15.510Z,1.83
2022-08-11T20:21:00.970Z,2.13
2022-08-11T20:23:46.499Z,2.40
2022-08-11T20:26:36.023Z,2.37
2022-08-11T20:29:22.060Z,2.57
2022-08-11T20:32:13.297Z,2.23
2022-08-11T20:35:07.721Z,2.10
2022-08-11T20:37:53.119Z,2.00
2022-08-11T20:40:39.806Z,2.30
2022-08-11T20:44:08.117Z,2.60
2022-08-11T20:46:35.313Z,2.00
2022-08-11T20:49:21.123Z,1.93
2022-08-11T20:52:06.965Z,2.17
2022-08-11T20:54:52.546Z,2.00
2022-08-11T20:57:59.432Z,2.00
2022-08-11T21:00:53.167Z,2.43
2022-08-11T21:03:44.867Z,1.77
2022-08-11T21:06:37.847Z,1.90
2022-08-11T21:09:58.756Z,2.03
2022-08-11T21:15:47.476Z,2.10
2022-08-11T21:18:35.449Z,2.07
2022-08-11T21:21:23.344Z,1.90
2022-08-11T21:24:10.455Z,1.80
2022-08-11T21:27:01.543Z,1.80
2022-08-11T21:29:48.966Z,2.10
2022-08-11T21:32:34.871Z,1.70
2022-08-11T21:35:22.492Z,1.70
2022-08-11T21:38:09.103Z,1.63
2022-08-11T21:40:54.789Z,1.80
2022-08-11T21:43:41.760Z,1.77
2022-08-11T21:46:29.088Z,1.67
2022-08-11T21:49:19.344Z,1.67
2022-08-11T21:52:06.221Z,1.77
2022-08-11T21:54:51.669Z,1.80
2022-08-11T21:57:47.989Z,1.83
2022-08-11T22:00:35.073Z,1.60
2022-08-11T22:03:20.616Z,1.80
2022-08-11T22:06:06.089Z,2.00
2022-08-11T22:08:58.650Z,2.13
2022-08-11T22:11:45.998Z,1.53
2022-08-11T22:14:31.834Z,1.97
2022-08-11T22:17:17.343Z,2.40
2022-08-11T22:20:02.673Z,1.87
2022-08-11T22:22:54.306Z,2.00
2022-08-11T22:25:51.338Z,2.13
2022-08-11T22:28:39.918Z,2.60
2022-08-11T22:31:25.742Z,2.10
2022-08-11T22:34:11.234Z,1.83
2022-08-11T22:36:56.589Z,2.20
2022-08-11T22:39:43.795Z,2.03
2022-08-11T22:42:33.630Z,2.00
2022-08-11T22:45:19.687Z,2.30
2022-08-11T22:48:06.130Z,2.03
2022-08-11T22:50:51.500Z,2.40
2022-08-11T22:53:54.924Z,2.20
2022-08-11T22:56:42.701Z,2.00
2022-08-11T22:59:29.566Z,2.03
2022-08-11T23:02:14.964Z,2.40
2022-08-11T23:05:00.550Z,2.00
2022-08-11T23:07:49.675Z,1.90
2022-08-11T23:10:37.313Z,2.10
2022-08-11T23:13:22.756Z,2.93
2022-08-11T23:16:10.145Z,2.20
2022-08-11T23:18:55.731Z,2.00
2022-08-11T23:21:42.179Z,2.03
2022-08-11T23:24:28.042Z,2.20
2022-08-11T23:27:14.082Z,2.03
2022-08-11T23:30:00.015Z,2.10
2022-08-11T23:32:46.838Z,1.83
2022-08-11T23:35:40.450Z,2.23
2022-08-11T23:38:38.794Z,2.03
2022-08-11T23:41:24.241Z,2.10
2022-08-11T23:44:10.070Z,2.10
2022-08-11T23:46:55.489Z,2.20
2022-08-11T23:49:43.537Z,2.30
2022-08-11T23:52:34.097Z,2.80
2022-08-11T23:55:19.566Z,2.43
2022-08-11T23:58:05.197Z,2.30
